sensor_id;sensor_type;location;lat;lon;timestamp;P1;durP1;ratioP1;P2;durP2;ratioP2
35961;SDS011;22044;48.298;10.008;2022-08-19T00:01:28;15.53;;;14.07;;
35961;SDS011;22044;48.298;10.008;2022-08-19T00:03:57;15.73;;;14.30;;
35961;SDS011;22044;48.298;10.008;2022-08-19T00:06:25;15.60;;;14.23;;
35961;SDS011;22044;48.298;10.008;2022-08-19T00:08:53;16.13;;;14.57;;
35961;SDS011;22044;48.298;10.008;2022-08-19T00:11:20;16.60;;;15.13;;
35961;SDS011;22044;48.298;10.008;2022-08-19T00:13:48;16.95;;;15.15;;
35961;SDS011;22044;48.298;10.008;2022-08-19T00:16:15;18.33;;;16.63;;
35961;SDS011;22044;48.298;10.008;2022-08-19T00:18:46;19.20;;;17.40;;
35961;SDS011;22044;48.298;10.008;2022-08-19T00:21:15;20.07;;;18.07;;
35961;SDS011;22044;48.298;10.008;2022-08-19T00:23:43;20.87;;;18.97;;
35961;SDS011;22044;48.298;10.008;2022-08-19T00:26:10;19.20;;;17.03;;
35961;SDS011;22044;48.298;10.008;2022-08-19T00:28:37;21.27;;;19.27;;
35961;SDS011;22044;48.298;10.008;2022-08-19T00:31:05;21.90;;;19.90;;
35961;SDS011;22044;48.298;10.008;2022-08-19T00:33:33;21.50;;;19.40;;
35961;SDS011;22044;48.298;10.008;2022-08-19T00:36:01;19.17;;;17.37;;
35961;SDS011;22044;48.298;10.008;2022-08-19T00:38:30;20.53;;;18.57;;
35961;SDS011;22044;48.298;10.008;2022-08-19T00:40:58;19.27;;;17.33;;
35961;SDS011;22044;48.298;10.008;2022-08-19T00:43:26;22.27;;;20.13;;
35961;SDS011;22044;48.298;10.008;2022-08-19T00:45:53;21.40;;;19.43;;
35961;SDS011;22044;48.298;10.008;2022-08-19T00:48:21;19.80;;;18.00;;
35961;SDS011;22044;48.298;10.008;2022-08-19T00:50:49;19.97;;;18.17;;
35961;SDS011;22044;48.298;10.008;2022-08-19T00:53:20;21.23;;;19.23;;
35961;SDS011;22044;48.298;10.008;2022-08-19T00:55:53;21.43;;;19.53;;
35961;SDS011;22044;48.298;10.008;2022-08-19T00:58:24;20.87;;;18.73;;
35961;SDS011;22044;48.298;10.008;2022-08-19T01:00:54;20.83;;;19.02;;
35961;SDS011;22044;48.298;10.008;2022-08-19T01:03:21;22.07;;;19.87;;
35961;SDS011;22044;48.298;10.008;2022-08-19T01:05:49;19.93;;;18.13;;
35961;SDS011;22044;48.298;10.008;2022-08-19T01:08:18;21.60;;;19.50;;
35961;SDS011;22044;48.298;10.008;2022-08-19T01:10:47;22.97;;;20.67;;
35961;SDS011;22044;48.298;10.008;2022-08-19T01:13:19;23.07;;;20.90;;
35961;SDS011;22044;48.298;10.008;2022-08-19T01:15:51;23.77;;;21.47;;
35961;SDS011;22044;48.298;10.008;2022-08-19T01:18:21;22.70;;;20.60;;
35961;SDS011;22044;48.298;10.008;2022-08-19T01:20:49;22.67;;;20.37;;
35961;SDS011;22044;48.298;10.008;2022-08-19T01:23:19;23.03;;;20.90;;
35961;SDS011;22044;48.298;10.008;2022-08-19T01:25:47;23.40;;;21.30;;
35961;SDS011;22044;48.298;10.008;2022-08-19T01:28:17;24.10;;;21.90;;
35961;SDS011;22044;48.298;10.008;2022-08-19T01:30:46;23.27;;;21.07;;
35961;SDS011;22044;48.298;10.008;2022-08-19T01:33:14;22.77;;;20.47;;
35961;SDS011;22044;48.298;10.008;2022-08-19T01:35:41;25.97;;;23.57;;
35961;SDS011;22044;48.298;10.008;2022-08-19T01:38:09;23.77;;;21.60;;
35961;SDS011;22044;48.298;10.008;2022-08-19T01:40:46;22.83;;;20.73;;
35961;SDS011;22044;48.298;10.008;2022-08-19T01:43:13;25.03;;;22.63;;
35961;SDS011;22044;48.298;10.008;2022-08-19T01:45:41;24.93;;;22.53;;
35961;SDS011;22044;48.298;10.008;2022-08-19T01:48:08;25.52;;;23.13;;
35961;SDS011;22044;48.298;10.008;2022-08-19T01:50:36;24.23;;;22.03;;
35961;SDS011;22044;48.298;10.008;2022-08-19T01:53:04;26.43;;;24.00;;
35961;SDS011;22044;48.298;10.008;2022-08-19T01:55:35;23.77;;;21.60;;
35961;SDS011;22044;48.298;10.008;2022-08-19T01:58:06;23.43;;;21.30;;
35961;SDS011;22044;48.298;10.008;2022-08-19T02:00:36;23.37;;;21.00;;
35961;SDS011;22044;48.298;10.008;2022-08-19T02:03:03;24.10;;;21.77;;
35961;SDS011;22044;48.298;10.008;2022-08-19T02:05:32;22.63;;;20.40;;
35961;SDS011;22044;48.298;10.008;2022-08-19T02:08:00;23.73;;;21.43;;
35961;SDS011;22044;48.298;10.008;2022-08-19T02:10:27;24.83;;;22.30;;
35961;SDS011;22044;48.298;10.008;2022-08-19T02:12:54;23.63;;;21.40;;
35961;SDS011;22044;48.298;10.008;2022-08-19T02:15:22;20.63;;;18.83;;
35961;SDS011;22044;48.298;10.008;2022-08-19T02:17:51;24.30;;;22.03;;
35961;SDS011;22044;48.298;10.008;2022-08-19T02:20:18;22.67;;;20.67;;
35961;SDS011;22044;48.298;10.008;2022-08-19T02:22:45;21.33;;;19.43;;
35961;SDS011;22044;48.298;10.008;2022-08-19T02:25:13;23.00;;;20.60;;
35961;SDS011;22044;48.298;10.008;2022-08-19T02:27:41;23.87;;;21.60;;
35961;SDS011;22044;48.298;10.008;2022-08-19T02:30:10;22.73;;;20.70;;
35961;SDS011;22044;48.298;10.008;2022-08-19T02:32:42;22.57;;;20.47;;
35961;SDS011;22044;48.298;10.008;2022-08-19T02:35:09;24.80;;;22.40;;
35961;SDS011;22044;48.298;10.008;2022-08-19T02:37:37;23.80;;;21.40;;
35961;SDS011;22044;48.298;10.008;2022-08-19T02:40:21;25.40;;;22.83;;
35961;SDS011;22044;48.298;10.008;2022-08-19T02:42:49;22.03;;;20.03;;
35961;SDS011;22044;48.298;10.008;2022-08-19T02:45:16;24.17;;;21.93;;
35961;SDS011;22044;48.298;10.008;2022-08-19T02:47:44;22.23;;;20.03;;
35961;SDS011;22044;48.298;10.008;2022-08-19T02:50:12;24.30;;;22.00;;
35961;SDS011;22044;48.298;10.008;2022-08-19T02:52:40;24.30;;;21.73;;
35961;SDS011;22044;48.298;10.008;2022-08-19T02:55:07;24.93;;;22.53;;
35961;SDS011;22044;48.298;10.008;2022-08-19T02:57:35;24.43;;;22.13;;
35961;SDS011;22044;48.298;10.008;2022-08-19T03:00:04;24.07;;;21.73;;
35961;SDS011;22044;48.298;10.008;2022-08-19T03:02:33;24.77;;;22.27;;
35961;SDS011;22044;48.298;10.008;2022-08-19T03:05:04;25.97;;;23.30;;
35961;SDS011;22044;48.298;10.008;2022-08-19T03:07:34;24.20;;;21.87;;
35961;SDS011;22044;48.298;10.008;2022-08-19T03:10:02;27.60;;;24.97;;
35961;SDS011;22044;48.298;10.008;2022-08-19T03:12:29;26.53;;;23.83;;
35961;SDS011;22044;48.298;10.008;2022-08-19T03:14:57;25.43;;;23.03;;
35961;SDS011;22044;48.298;10.008;2022-08-19T03:17:24;26.90;;;24.40;;
35961;SDS011;22044;48.298;10.008;2022-08-19T03:19:51;26.60;;;24.00;;
35961;SDS011;22044;48.298;10.008;2022-08-19T03:22:20;27.13;;;24.43;;
35961;SDS011;22044;48.298;10.008;2022-08-19T03:24:47;25.90;;;23.23;;
35961;SDS011;22044;48.298;10.008;2022-08-19T03:27:14;27.77;;;25.07;;
35961;SDS011;22044;48.298;10.008;2022-08-19T03:29:43;26.67;;;23.97;;
35961;SDS011;22044;48.298;10.008;2022-08-19T03:32:11;28.63;;;25.63;;
35961;SDS011;22044;48.298;10.008;2022-08-19T03:34:38;25.97;;;23.27;;
35961;SDS011;22044;48.298;10.008;2022-08-19T03:37:06;28.37;;;25.60;;
35961;SDS011;22044;48.298;10.008;2022-08-19T03:39:36;27.87;;;25.17;;
35961;SDS011;22044;48.298;10.008;2022-08-19T03:42:05;29.93;;;26.63;;
35961;SDS011;22044;48.298;10.008;2022-08-19T03:44:32;29.97;;;26.87;;
35961;SDS011;22044;48.298;10.008;2022-08-19T03:47:01;31.50;;;28.10;;
35961;SDS011;22044;48.298;10.008;2022-08-19T03:49:29;30.63;;;27.77;;
35961;SDS011;22044;48.298;10.008;2022-08-19T03:51:58;29.30;;;26.40;;
35961;SDS011;22044;48.298;10.008;2022-08-19T03:54:26;29.93;;;26.93;;
35961;SDS011;22044;48.298;10.008;2022-08-19T03:56:56;30.70;;;27.43;;
35961;SDS011;22044;48.298;10.008;2022-08-19T03:59:24;32.87;;;28.30;;
35961;SDS011;22044;48.298;10.008;2022-08-19T04:01:54;32.10;;;28.80;;
35961;SDS011;22044;48.298;10.008;2022-08-19T04:04:21;32.00;;;28.47;;
35961;SDS011;22044;48.298;10.008;2022-08-19T04:06:49;31.30;;;28.00;;
35961;SDS011;22044;48.298;10.008;2022-08-19T04:09:17;29.43;;;26.37;;
35961;SDS011;22044;48.298;10.008;2022-08-19T04:11:46;28.63;;;25.70;;
35961;SDS011;22044;48.298;10.008;2022-08-19T04:14:17;30.43;;;27.23;;
35961;SDS011;22044;48.298;10.008;2022-08-19T04:16:46;28.67;;;25.77;;
35961;SDS011;22044;48.298;10.008;2022-08-19T04:19:15;31.63;;;28.33;;
35961;SDS011;22044;48.298;10.008;2022-08-19T04:21:44;29.00;;;26.03;;
35961;SDS011;22044;48.298;10.008;2022-08-19T04:24:13;30.73;;;27.43;;
35961;SDS011;22044;48.298;10.008;2022-08-19T04:26:40;30.27;;;27.07;;
35961;SDS011;22044;48.298;10.008;2022-08-19T04:29:12;30.93;;;27.73;;
35961;SDS011;22044;48.298;10.008;2022-08-19T04:31:43;30.27;;;27.17;;
35961;SDS011;22044;48.298;10.008;2022-08-19T04:34:11;30.03;;;26.87;;
35961;SDS011;22044;48.298;10.008;2022-08-19T04:36:41;29.87;;;26.43;;
35961;SDS011;22044;48.298;10.008;2022-08-19T04:39:12;28.33;;;25.47;;
35961;SDS011;22044;48.298;10.008;2022-08-19T04:41:42;30.27;;;27.17;;
35961;SDS011;22044;48.298;10.008;2022-08-19T04:44:27;28.30;;;25.30;;
35961;SDS011;22044;48.298;10.008;2022-08-19T04:46:57;27.63;;;24.67;;
35961;SDS011;22044;48.298;10.008;2022-08-19T04:49:24;31.47;;;28.03;;
35961;SDS011;22044;48.298;10.008;2022-08-19T04:51:52;30.83;;;27.50;;
35961;SDS011;22044;48.298;10.008;2022-08-19T04:54:20;30.67;;;27.07;;
35961;SDS011;22044;48.298;10.008;2022-08-19T04:56:50;30.67;;;27.43;;
35961;SDS011;22044;48.298;10.008;2022-08-19T04:59:17;30.33;;;27.03;;
35961;SDS011;22044;48.298;10.008;2022-08-19T05:01:45;29.80;;;26.60;;
35961;SDS011;22044;48.298;10.008;2022-08-19T05:04:17;32.07;;;28.57;;
35961;SDS011;22044;48.298;10.008;2022-08-19T05:06:46;30.17;;;27.07;;
35961;SDS011;22044;48.298;10.008;2022-08-19T05:09:14;30.50;;;26.90;;
35961;SDS011;22044;48.298;10.008;2022-08-19T05:11:42;29.67;;;26.23;;
35961;SDS011;22044;48.298;10.008;2022-08-19T05:14:10;29.43;;;26.33;;
35961;SDS011;22044;48.298;10.008;2022-08-19T05:16:39;32.30;;;28.83;;
35961;SDS011;22044;48.298;10.008;2022-08-19T05:19:06;32.80;;;29.30;;
35961;SDS011;22044;48.298;10.008;2022-08-19T05:21:53;32.50;;;29.10;;
35961;SDS011;22044;48.298;10.008;2022-08-19T05:24:37;35.00;;;30.53;;
35961;SDS011;22044;48.298;10.008;2022-08-19T05:27:04;31.43;;;28.13;;
35961;SDS011;22044;48.298;10.008;2022-08-19T05:29:32;36.93;;;30.50;;
35961;SDS011;22044;48.298;10.008;2022-08-19T05:32:00;33.17;;;29.63;;
35961;SDS011;22044;48.298;10.008;2022-08-19T05:34:30;32.53;;;29.07;;
35961;SDS011;22044;48.298;10.008;2022-08-19T05:37:01;35.43;;;29.77;;
35961;SDS011;22044;48.298;10.008;2022-08-19T05:39:30;31.30;;;26.83;;
35961;SDS011;22044;48.298;10.008;2022-08-19T05:41:59;35.07;;;30.93;;
35961;SDS011;22044;48.298;10.008;2022-08-19T05:44:28;31.00;;;27.80;;
35961;SDS011;22044;48.298;10.008;2022-08-19T05:46:57;33.23;;;28.70;;
35961;SDS011;22044;48.298;10.008;2022-08-19T05:49:25;34.97;;;30.70;;
35961;SDS011;22044;48.298;10.008;2022-08-19T05:51:53;35.17;;;30.73;;
35961;SDS011;22044;48.298;10.008;2022-08-19T05:54:22;35.00;;;31.20;;
35961;SDS011;22044;48.298;10.008;2022-08-19T05:56:51;34.67;;;30.80;;
35961;SDS011;22044;48.298;10.008;2022-08-19T05:59:19;37.83;;;33.33;;
35961;SDS011;22044;48.298;10.008;2022-08-19T06:01:47;36.03;;;32.13;;
35961;SDS011;22044;48.298;10.008;2022-08-19T06:04:17;32.77;;;28.60;;
35961;SDS011;22044;48.298;10.008;2022-08-19T06:06:44;34.83;;;30.80;;
35961;SDS011;22044;48.298;10.008;2022-08-19T06:09:12;32.90;;;29.40;;
35961;SDS011;22044;48.298;10.008;2022-08-19T06:11:42;33.37;;;29.17;;
35961;SDS011;22044;48.298;10.008;2022-08-19T06:14:11;32.40;;;28.90;;
35961;SDS011;22044;48.298;10.008;2022-08-19T06:16:41;32.83;;;29.30;;
35961;SDS011;22044;48.298;10.008;2022-08-19T06:19:11;30.17;;;26.83;;
35961;SDS011;22044;48.298;10.008;2022-08-19T06:21:41;33.20;;;27.87;;
35961;SDS011;22044;48.298;10.008;2022-08-19T06:24:11;33.27;;;28.50;;
35961;SDS011;22044;48.298;10.008;2022-08-19T06:26:44;32.53;;;28.47;;
35961;SDS011;22044;48.298;10.008;2022-08-19T06:29:13;30.70;;;27.40;;
35961;SDS011;22044;48.298;10.008;2022-08-19T06:31:42;33.30;;;28.47;;
35961;SDS011;22044;48.298;10.008;2022-08-19T06:34:11;31.27;;;27.80;;
35961;SDS011;22044;48.298;10.008;2022-08-19T06:36:39;33.83;;;30.13;;
35961;SDS011;22044;48.298;10.008;2022-08-19T06:39:09;32.23;;;28.07;;
35961;SDS011;22044;48.298;10.008;2022-08-19T06:41:39;30.17;;;26.97;;
35961;SDS011;22044;48.298;10.008;2022-08-19T06:44:17;29.33;;;26.23;;
35961;SDS011;22044;48.298;10.008;2022-08-19T06:46:45;33.37;;;27.77;;
35961;SDS011;22044;48.298;10.008;2022-08-19T06:49:14;28.63;;;25.27;;
35961;SDS011;22044;48.298;10.008;2022-08-19T06:51:41;29.93;;;25.97;;
35961;SDS011;22044;48.298;10.008;2022-08-19T06:54:09;32.83;;;28.00;;
35961;SDS011;22044;48.298;10.008;2022-08-19T06:56:37;37.33;;;30.30;;
35961;SDS011;22044;48.298;10.008;2022-08-19T06:59:05;34.80;;;28.30;;
35961;SDS011;22044;48.298;10.008;2022-08-19T07:01:37;29.80;;;26.60;;
35961;SDS011;22044;48.298;10.008;2022-08-19T07:04:06;33.43;;;29.10;;
35961;SDS011;22044;48.298;10.008;2022-08-19T07:06:35;37.77;;;30.70;;
35961;SDS011;22044;48.298;10.008;2022-08-19T07:09:03;35.37;;;28.83;;
35961;SDS011;22044;48.298;10.008;2022-08-19T07:11:34;34.23;;;28.37;;
35961;SDS011;22044;48.298;10.008;2022-08-19T07:14:01;31.50;;;27.93;;
35961;SDS011;22044;48.298;10.008;2022-08-19T07:16:29;37.77;;;31.50;;
35961;SDS011;22044;48.298;10.008;2022-08-19T07:18:58;37.30;;;29.83;;
35961;SDS011;22044;48.298;10.008;2022-08-19T07:21:26;36.00;;;28.90;;
35961;SDS011;22044;48.298;10.008;2022-08-19T07:23:54;35.57;;;29.97;;
35961;SDS011;22044;48.298;10.008;2022-08-19T07:26:23;35.60;;;29.47;;
35961;SDS011;22044;48.298;10.008;2022-08-19T07:28:53;37.17;;;30.77;;
35961;SDS011;22044;48.298;10.008;2022-08-19T07:31:22;40.13;;;32.50;;
35961;SDS011;22044;48.298;10.008;2022-08-19T07:33:52;33.87;;;29.03;;
35961;SDS011;22044;48.298;10.008;2022-08-19T07:36:24;34.10;;;29.33;;
35961;SDS011;22044;48.298;10.008;2022-08-19T07:38:53;34.20;;;29.17;;
35961;SDS011;22044;48.298;10.008;2022-08-19T07:41:21;37.00;;;30.33;;
35961;SDS011;22044;48.298;10.008;2022-08-19T07:43:50;36.63;;;31.10;;
35961;SDS011;22044;48.298;10.008;2022-08-19T07:46:19;39.87;;;30.37;;
35961;SDS011;22044;48.298;10.008;2022-08-19T07:48:47;38.33;;;33.03;;
35961;SDS011;22044;48.298;10.008;2022-08-19T07:51:17;38.93;;;30.67;;
35961;SDS011;22044;48.298;10.008;2022-08-19T07:53:48;40.90;;;33.57;;
35961;SDS011;22044;48.298;10.008;2022-08-19T07:56:17;39.40;;;32.80;;
35961;SDS011;22044;48.298;10.008;2022-08-19T07:58:47;38.63;;;31.30;;
35961;SDS011;22044;48.298;10.008;2022-08-19T08:01:16;35.67;;;30.17;;
35961;SDS011;22044;48.298;10.008;2022-08-19T08:03:46;36.27;;;31.30;;
35961;SDS011;22044;48.298;10.008;2022-08-19T08:06:31;36.33;;;30.50;;
35961;SDS011;22044;48.298;10.008;2022-08-19T08:09:19;36.73;;;31.07;;
35961;SDS011;22044;48.298;10.008;2022-08-19T08:11:50;38.63;;;33.67;;
35961;SDS011;22044;48.298;10.008;2022-08-19T08:14:20;37.60;;;32.10;;
35961;SDS011;22044;48.298;10.008;2022-08-19T08:16:50;34.00;;;29.30;;
35961;SDS011;22044;48.298;10.008;2022-08-19T08:19:18;32.80;;;29.03;;
35961;SDS011;22044;48.298;10.008;2022-08-19T08:21:46;32.00;;;27.73;;
35961;SDS011;22044;48.298;10.008;2022-08-19T08:24:14;33.27;;;28.07;;
35961;SDS011;22044;48.298;10.008;2022-08-19T08:26:42;32.33;;;28.03;;
35961;SDS011;22044;48.298;10.008;2022-08-19T08:29:11;30.97;;;26.37;;
35961;SDS011;22044;48.298;10.008;2022-08-19T08:31:39;31.40;;;27.27;;
35961;SDS011;22044;48.298;10.008;2022-08-19T08:34:07;32.83;;;28.97;;
35961;SDS011;22044;48.298;10.008;2022-08-19T08:36:36;32.93;;;27.63;;
35961;SDS011;22044;48.298;10.008;2022-08-19T08:39:07;31.83;;;25.97;;
35961;SDS011;22044;48.298;10.008;2022-08-19T08:41:35;30.57;;;25.70;;
35961;SDS011;22044;48.298;10.008;2022-08-19T08:44:12;29.63;;;26.43;;
35961;SDS011;22044;48.298;10.008;2022-08-19T08:46:45;28.87;;;24.30;;
35961;SDS011;22044;48.298;10.008;2022-08-19T08:49:20;27.67;;;24.67;;
35961;SDS011;22044;48.298;10.008;2022-08-19T08:51:58;26.93;;;24.03;;
35961;SDS011;22044;48.298;10.008;2022-08-19T08:54:30;24.87;;;22.30;;
35961;SDS011;22044;48.298;10.008;2022-08-19T08:57:01;26.87;;;23.97;;
35961;SDS011;22044;48.298;10.008;2022-08-19T08:59:33;25.93;;;23.10;;
35961;SDS011;22044;48.298;10.008;2022-08-19T09:02:04;26.87;;;23.90;;
35961;SDS011;22044;48.298;10.008;2022-08-19T09:04:31;26.20;;;23.50;;
35961;SDS011;22044;48.298;10.008;2022-08-19T09:07:03;25.23;;;22.50;;
35961;SDS011;22044;48.298;10.008;2022-08-19T09:09:54;25.73;;;22.87;;
35961;SDS011;22044;48.298;10.008;2022-08-19T09:12:31;26.13;;;23.33;;
35961;SDS011;22044;48.298;10.008;2022-08-19T09:15:07;30.03;;;23.77;;
35961;SDS011;22044;48.298;10.008;2022-08-19T09:17:37;27.27;;;24.27;;
35961;SDS011;22044;48.298;10.008;2022-08-19T09:20:06;27.20;;;21.97;;
35961;SDS011;22044;48.298;10.008;2022-08-19T09:22:42;25.67;;;22.83;;
35961;SDS011;22044;48.298;10.008;2022-08-19T09:25:10;26.80;;;23.90;;
35961;SDS011;22044;48.298;10.008;2022-08-19T09:27:40;26.97;;;24.07;;
35961;SDS011;22044;48.298;10.008;2022-08-19T09:30:21;27.80;;;24.63;;
35961;SDS011;22044;48.298;10.008;2022-08-19T09:32:51;26.23;;;22.67;;
35961;SDS011;22044;48.298;10.008;2022-08-19T09:35:19;26.63;;;23.90;;
35961;SDS011;22044;48.298;10.008;2022-08-19T09:37:49;26.60;;;23.60;;
35961;SDS011;22044;48.298;10.008;2022-08-19T09:40:18;24.73;;;22.13;;
35961;SDS011;22044;48.298;10.008;2022-08-19T09:42:45;24.93;;;22.23;;
35961;SDS011;22044;48.298;10.008;2022-08-19T09:45:15;28.00;;;23.30;;
35961;SDS011;22044;48.298;10.008;2022-08-19T09:47:43;25.33;;;22.50;;
35961;SDS011;22044;48.298;10.008;2022-08-19T09:50:12;25.17;;;22.50;;
35961;SDS011;22044;48.298;10.008;2022-08-19T09:52:39;24.20;;;21.67;;
35961;SDS011;22044;48.298;10.008;2022-08-19T09:55:08;25.20;;;21.47;;
35961;SDS011;22044;48.298;10.008;2022-08-19T09:57:37;24.00;;;21.47;;
35961;SDS011;22044;48.298;10.008;2022-08-19T10:00:05;26.93;;;23.67;;
35961;SDS011;22044;48.298;10.008;2022-08-19T10:02:35;25.50;;;22.80;;
35961;SDS011;22044;48.298;10.008;2022-08-19T10:05:03;24.67;;;21.90;;
35961;SDS011;22044;48.298;10.008;2022-08-19T10:07:48;25.57;;;22.87;;
35961;SDS011;22044;48.298;10.008;2022-08-19T10:10:16;20.80;;;18.53;;
35961;SDS011;22044;48.298;10.008;2022-08-19T10:12:44;23.17;;;20.70;;
35961;SDS011;22044;48.298;10.008;2022-08-19T10:15:13;22.97;;;20.47;;
35961;SDS011;22044;48.298;10.008;2022-08-19T10:17:41;22.20;;;19.90;;
35961;SDS011;22044;48.298;10.008;2022-08-19T10:20:09;21.00;;;18.90;;
35961;SDS011;22044;48.298;10.008;2022-08-19T10:22:37;23.97;;;21.07;;
35961;SDS011;22044;48.298;10.008;2022-08-19T10:25:05;21.77;;;19.57;;
35961;SDS011;22044;48.298;10.008;2022-08-19T10:27:33;21.90;;;19.10;;
35961;SDS011;22044;48.298;10.008;2022-08-19T10:30:00;21.00;;;18.67;;
35961;SDS011;22044;48.298;10.008;2022-08-19T10:32:27;20.40;;;18.37;;
35961;SDS011;22044;48.298;10.008;2022-08-19T10:34:56;22.20;;;19.30;;
35961;SDS011;22044;48.298;10.008;2022-08-19T10:37:24;20.57;;;18.47;;
35961;SDS011;22044;48.298;10.008;2022-08-19T10:39:51;22.13;;;19.73;;
35961;SDS011;22044;48.298;10.008;2022-08-19T10:42:18;21.83;;;19.57;;
35961;SDS011;22044;48.298;10.008;2022-08-19T10:44:46;21.63;;;19.27;;
35961;SDS011;22044;48.298;10.008;2022-08-19T10:47:13;21.77;;;19.23;;
35961;SDS011;22044;48.298;10.008;2022-08-19T10:49:41;19.67;;;17.57;;
35961;SDS011;22044;48.298;10.008;2022-08-19T10:52:27;17.70;;;15.97;;
35961;SDS011;22044;48.298;10.008;2022-08-19T10:55:00;20.80;;;18.60;;
35961;SDS011;22044;48.298;10.008;2022-08-19T10:57:45;21.10;;;18.63;;
35961;SDS011;22044;48.298;10.008;2022-08-19T11:00:12;19.30;;;17.40;;
35961;SDS011;22044;48.298;10.008;2022-08-19T11:02:40;19.30;;;17.30;;
35961;SDS011;22044;48.298;10.008;2022-08-19T11:05:08;19.37;;;17.07;;
35961;SDS011;22044;48.298;10.008;2022-08-19T11:07:37;20.07;;;18.07;;
35961;SDS011;22044;48.298;10.008;2022-08-19T11:10:05;20.80;;;18.63;;
35961;SDS011;22044;48.298;10.008;2022-08-19T11:12:33;19.67;;;17.67;;
35961;SDS011;22044;48.298;10.008;2022-08-19T11:15:04;19.70;;;17.63;;
35961;SDS011;22044;48.298;10.008;2022-08-19T11:17:32;20.50;;;18.40;;
35961;SDS011;22044;48.298;10.008;2022-08-19T11:20:01;20.97;;;18.87;;
35961;SDS011;22044;48.298;10.008;2022-08-19T11:22:30;21.93;;;19.63;;
35961;SDS011;22044;48.298;10.008;2022-08-19T11:24:59;21.10;;;18.93;;
35961;SDS011;22044;48.298;10.008;2022-08-19T11:27:26;19.20;;;17.23;;
35961;SDS011;22044;48.298;10.008;2022-08-19T11:29:54;19.77;;;17.80;;
35961;SDS011;22044;48.298;10.008;2022-08-19T11:32:21;19.17;;;17.23;;
35961;SDS011;22044;48.298;10.008;2022-08-19T11:34:48;20.13;;;18.00;;
35961;SDS011;22044;48.298;10.008;2022-08-19T11:37:15;18.77;;;16.80;;
35961;SDS011;22044;48.298;10.008;2022-08-19T11:39:42;18.00;;;16.30;;
35961;SDS011;22044;48.298;10.008;2022-08-19T11:42:11;18.90;;;16.90;;
35961;SDS011;22044;48.298;10.008;2022-08-19T11:44:55;18.67;;;16.77;;
35961;SDS011;22044;48.298;10.008;2022-08-19T11:47:22;18.07;;;16.27;;
35961;SDS011;22044;48.298;10.008;2022-08-19T11:49:50;18.37;;;16.17;;
35961;SDS011;22044;48.298;10.008;2022-08-19T11:52:18;17.73;;;16.00;;
35961;SDS011;22044;48.298;10.008;2022-08-19T11:54:45;20.43;;;18.27;;
35961;SDS011;22044;48.298;10.008;2022-08-19T11:57:14;18.07;;;16.17;;
35961;SDS011;22044;48.298;10.008;2022-08-19T11:59:42;16.33;;;14.73;;
35961;SDS011;22044;48.298;10.008;2022-08-19T12:02:14;17.83;;;15.70;;
35961;SDS011;22044;48.298;10.008;2022-08-19T12:04:41;17.40;;;15.70;;
35961;SDS011;22044;48.298;10.008;2022-08-19T12:07:08;17.27;;;15.47;;
35961;SDS011;22044;48.298;10.008;2022-08-19T12:09:35;17.07;;;15.40;;
35961;SDS011;22044;48.298;10.008;2022-08-19T12:12:04;18.57;;;16.67;;
35961;SDS011;22044;48.298;10.008;2022-08-19T12:14:33;18.53;;;16.73;;
35961;SDS011;22044;48.298;10.008;2022-08-19T12:17:01;18.30;;;16.40;;
35961;SDS011;22044;48.298;10.008;2022-08-19T12:19:30;17.83;;;16.03;;
35961;SDS011;22044;48.298;10.008;2022-08-19T12:21:58;18.40;;;16.60;;
35961;SDS011;22044;48.298;10.008;2022-08-19T12:24:26;18.10;;;16.20;;
35961;SDS011;22044;48.298;10.008;2022-08-19T12:26:56;18.23;;;16.37;;
35961;SDS011;22044;48.298;10.008;2022-08-19T12:29:26;19.50;;;17.43;;
35961;SDS011;22044;48.298;10.008;2022-08-19T12:31:56;19.77;;;17.73;;
35961;SDS011;22044;48.298;10.008;2022-08-19T12:34:26;19.03;;;16.93;;
35961;SDS011;22044;48.298;10.008;2022-08-19T12:36:55;18.53;;;16.63;;
35961;SDS011;22044;48.298;10.008;2022-08-19T12:39:25;18.23;;;16.43;;
35961;SDS011;22044;48.298;10.008;2022-08-19T12:41:53;20.40;;;18.30;;
35961;SDS011;22044;48.298;10.008;2022-08-19T12:44:20;18.90;;;17.10;;
35961;SDS011;22044;48.298;10.008;2022-08-19T12:46:48;18.57;;;16.67;;
35961;SDS011;22044;48.298;10.008;2022-08-19T12:49:16;20.67;;;17.77;;
35961;SDS011;22044;48.298;10.008;2022-08-19T12:51:43;18.23;;;16.50;;
35961;SDS011;22044;48.298;10.008;2022-08-19T12:54:11;20.43;;;18.33;;
35961;SDS011;22044;48.298;10.008;2022-08-19T12:56:40;21.10;;;19.00;;
35961;SDS011;22044;48.298;10.008;2022-08-19T12:59:09;21.07;;;18.97;;
35961;SDS011;22044;48.298;10.008;2022-08-19T13:01:36;20.93;;;18.83;;
35961;SDS011;22044;48.298;10.008;2022-08-19T13:04:03;21.00;;;18.90;;
35961;SDS011;22044;48.298;10.008;2022-08-19T13:06:32;20.63;;;18.63;;
35961;SDS011;22044;48.298;10.008;2022-08-19T13:08:59;20.93;;;18.83;;
35961;SDS011;22044;48.298;10.008;2022-08-19T13:11:26;19.63;;;17.73;;
35961;SDS011;22044;48.298;10.008;2022-08-19T13:13:57;22.07;;;19.90;;
35961;SDS011;22044;48.298;10.008;2022-08-19T13:16:25;20.60;;;18.60;;
35961;SDS011;22044;48.298;10.008;2022-08-19T13:18:53;20.37;;;18.30;;
35961;SDS011;22044;48.298;10.008;2022-08-19T13:21:22;19.23;;;17.43;;
35961;SDS011;22044;48.298;10.008;2022-08-19T13:23:53;18.50;;;16.70;;
35961;SDS011;22044;48.298;10.008;2022-08-19T13:26:21;18.47;;;16.70;;
35961;SDS011;22044;48.298;10.008;2022-08-19T13:28:48;16.33;;;14.63;;
35961;SDS011;22044;48.298;10.008;2022-08-19T13:31:34;16.27;;;14.73;;
35961;SDS011;22044;48.298;10.008;2022-08-19T13:34:25;16.07;;;14.63;;
35961;SDS011;22044;48.298;10.008;2022-08-19T13:36:54;15.30;;;13.80;;
35961;SDS011;22044;48.298;10.008;2022-08-19T13:39:22;12.27;;;11.07;;
35961;SDS011;22044;48.298;10.008;2022-08-19T13:41:49;10.83;;;9.80;;
35961;SDS011;22044;48.298;10.008;2022-08-19T13:44:17;9.43;;;8.63;;
35961;SDS011;22044;48.298;10.008;2022-08-19T13:46:45;12.77;;;9.60;;
35961;SDS011;22044;48.298;10.008;2022-08-19T13:49:14;10.20;;;9.20;;
35961;SDS011;22044;48.298;10.008;2022-08-19T13:51:41;9.67;;;8.73;;
35961;SDS011;22044;48.298;10.008;2022-08-19T13:54:09;11.00;;;10.00;;
35961;SDS011;22044;48.298;10.008;2022-08-19T13:56:40;10.87;;;9.87;;
35961;SDS011;22044;48.298;10.008;2022-08-19T13:59:09;11.63;;;10.57;;
35961;SDS011;22044;48.298;10.008;2022-08-19T14:01:36;11.27;;;10.27;;
35961;SDS011;22044;48.298;10.008;2022-08-19T14:04:04;9.80;;;8.80;;
35961;SDS011;22044;48.298;10.008;2022-08-19T14:06:32;10.60;;;9.60;;
35961;SDS011;22044;48.298;10.008;2022-08-19T14:08:59;9.90;;;9.00;;
35961;SDS011;22044;48.298;10.008;2022-08-19T14:11:27;7.80;;;7.00;;
35961;SDS011;22044;48.298;10.008;2022-08-19T14:13:55;6.73;;;6.10;;
35961;SDS011;22044;48.298;10.008;2022-08-19T14:16:23;6.40;;;5.77;;
35961;SDS011;22044;48.298;10.008;2022-08-19T14:18:50;6.60;;;6.00;;
35961;SDS011;22044;48.298;10.008;2022-08-19T14:21:19;7.00;;;6.30;;